Sevan, Armenia

2:37 PM AMT on July 31, 2014 (GMT +0400)
SHIRAK (UDSG) Elev 5000 ft | 40.75 °N, 43.86 °E | Change Station

Current weather conditions updated 7 minutes ago

Scattered Clouds
Scattered Clouds
77 °F
Feels Like 77 °F
N
13
Wind Variable Wind from ENE

Today is forecast to be Cooler than yesterday.

Today
High -- | Low -- °F
--% Chance of Precip.
Yesterday
High -- | Low -- °F
Precip. -- in
5:56 AM 8:16 PM
Waxing Crescent, 17% visible
Pressure 29.98 in
Visibility 6.2 miles
Clouds Few 5000 ft
Scattered Clouds 10000 ft
Dew Point 52 °F
Humidity 41%
Rainfall 0.00 in
Snow Depth Not available.
UV 8 out of 12
Pollen Not available.
Air Quality Not available.
Flu Activity Not available.
METAR UDSG 311030Z 06006MPS 9999 FEW050 SCT100 25/11 Q1015 R02/CLRD70 NOSIG

More Conditions Fewer Conditions

Pressure 29.98 in
Visibility 6.2 miles
Clouds Few 5000 ft
Scattered Clouds 10000 ft
Dew Point 52 °F
Humidity 41%
Rainfall 0.00 in
Snow Depth Not available.
UV 8 out of 12
Pollen Not available.
Air Quality Not available.
Flu Activity Not available.
METAR UDSG 311030Z 06006MPS 9999 FEW050 SCT100 25/11 Q1015 R02/CLRD70 NOSIG

More Conditions Fewer Conditions

10-Day Weather Forecast

Almanac

Astronomy

Jul. 31, 2014 Rise Set
Actual Time 5:56 AM AMT 8:16 PM AMT
Civil Twilight 5:25 AM AMT 8:47 PM AMT
Nautical Twilight 4:47 AM AMT 9:25 PM AMT
Astronomical Twilight 4:05 AM AMT 10:07 PM AMT
Moon 10:03 AM AMT 10:16 PM AMT
Length of Visible Light 15h 22m
Length of Day
14h 20m
Tomorrow will be 2m 0s shorter.
Waxing Crescent, 17% of the Moon is Illuminated
Today
Waxing Crescent
Aug 3
First Quarter
Aug 10
Full
Aug 17
Last Quarter
Aug 25
New

Yesterday's Extremes

Country Highs Country Lows

Community

WunderPhotos

Upload Photos

1,739,289 photos uploaded!

Nearby

Snow Depth

Not available.

Earthquake Activity

City Distance Mag. Time & Date
No recent earthquake activity has been reported nearby.
Minimum magnitude displayed is 2.5.

Coastal Water Temperatures

Place Temperature
No Stations Reporting

Nearby Weather Stations

There are no personal weather stations in this area.